LFJL 032030Z AUTO 24002KT CAVOK 04/01 Q1020
LFST 032030Z AUTO 32003KT CAVOK 10/02 Q1020 NOSIG
LFSG 032030Z AUTO VRB02KT CAVOK 07/02 Q1020